createdAt,value
2019-04-23T00:00:45.498Z,60.70
2019-04-23T00:03:18.743Z,60.90
2019-04-23T00:05:48.132Z,61.30
2019-04-23T00:08:19.697Z,61.50
2019-04-23T00:10:55.197Z,62.00
2019-04-23T00:13:24.679Z,62.10
2019-04-23T00:15:58.747Z,62.30
2019-04-23T00:18:34.831Z,62.80
2019-04-23T00:20:57.813Z,63.00
2019-04-23T00:23:25.498Z,62.80
2019-04-23T00:26:00.350Z,63.10
2019-04-23T00:28:28.286Z,63.80
2019-04-23T00:33:29.312Z,63.40
2019-04-23T00:35:55.037Z,63.80
2019-04-23T00:38:33.673Z,64.00
2019-04-23T00:41:00.671Z,64.40
2019-04-23T00:43:48.617Z,64.60
2019-04-23T00:45:59.327Z,64.70
2019-04-23T00:48:40.963Z,64.80
2019-04-23T00:51:00.134Z,64.60
2019-04-23T00:53:43.858Z,64.60
2019-04-23T00:56:23.610Z,65.10
2019-04-23T00:58:36.079Z,65.30
2019-04-23T01:01:05.373Z,65.50
2019-04-23T01:03:30.788Z,66.10
2019-04-23T01:06:09.018Z,66.00
2019-04-23T01:08:35.592Z,66.00
2019-04-23T01:11:14.808Z,66.30
2019-04-23T01:16:11.655Z,66.50
2019-04-23T01:18:51.354Z,67.10
2019-04-23T01:21:01.087Z,67.00
2019-04-23T01:23:55.481Z,67.20
2019-04-23T01:26:40.445Z,67.50
2019-04-23T01:29:12.823Z,67.20
2019-04-23T01:31:49.327Z,67.60
2019-04-23T01:34:21.645Z,68.10
2019-04-23T01:36:42.957Z,68.00
2019-04-23T01:39:17.813Z,68.50
2019-04-23T01:41:50.713Z,68.60
2019-04-23T01:44:22.484Z,68.80
2019-04-23T01:46:49.461Z,69.10
2019-04-23T01:49:29.469Z,69.30
2019-04-23T01:51:56.727Z,69.50
2019-04-23T01:54:19.729Z,70.20
2019-04-23T01:56:49.399Z,69.60
2019-04-23T01:59:24.709Z,69.60
2019-04-23T02:01:51.603Z,69.80
2019-04-23T02:04:23.651Z,70.00
2019-04-23T02:06:53.730Z,70.10
2019-04-23T02:09:25.535Z,70.20
2019-04-23T02:11:50.709Z,70.30
2019-04-23T02:16:55.164Z,70.50
2019-04-23T02:19:25.426Z,70.50
2019-04-23T02:22:01.266Z,70.50
2019-04-23T02:24:39.606Z,70.60
2019-04-23T02:27:03.180Z,70.60
2019-04-23T02:32:22.113Z,71.30
2019-04-23T02:44:38.682Z,72.10
2019-04-23T02:47:17.116Z,72.50
2019-04-23T02:49:55.004Z,72.50
2019-04-23T02:52:15.699Z,72.60
2019-04-23T02:55:04.342Z,72.60
2019-04-23T02:57:24.759Z,72.60
2019-04-23T03:02:35.035Z,73.10
2019-04-23T03:04:57.591Z,73.00
2019-04-23T03:07:37.213Z,73.30
2019-04-23T03:10:00.437Z,73.60
2019-04-23T03:12:32.117Z,74.00
2019-04-23T03:15:15.073Z,74.30
2019-04-23T03:17:36.504Z,74.30
2019-04-23T03:20:21.187Z,74.60
2019-04-23T03:22:59.024Z,74.60
2019-04-23T03:25:35.869Z,74.90
2019-04-23T03:28:07.099Z,75.20
2019-04-23T03:31:56.955Z,75.60
2019-04-23T03:33:55.508Z,76.20
2019-04-23T03:38:35.663Z,76.40
2019-04-23T03:40:56.793Z,76.70
2019-04-23T03:43:29.632Z,77.00
2019-04-23T03:46:12.074Z,77.00
2019-04-23T03:48:26.231Z,77.10
2019-04-23T03:50:49.403Z,77.10
2019-04-23T03:55:58.707Z,77.60
2019-04-23T03:58:28.313Z,77.90
2019-04-23T04:06:02.958Z,78.40
2019-04-23T04:08:30.578Z,78.30
2019-04-23T04:11:04.300Z,78.70
2019-04-23T04:13:31.591Z,78.40
2019-04-23T04:16:04.937Z,78.90
2019-04-23T04:18:38.931Z,79.00
2019-04-23T04:21:08.523Z,78.80
2019-04-23T04:26:04.991Z,78.50
2019-04-23T04:31:05.588Z,78.60
2019-04-23T04:36:45.049Z,78.90
2019-04-23T04:42:28.545Z,79.00
2019-04-23T05:00:12.879Z,79.80
2019-04-23T05:07:40.245Z,79.60
2019-04-23T05:10:20.872Z,79.70
2019-04-23T05:12:39.159Z,80.10
2019-04-23T05:15:07.264Z,79.80
2019-04-23T05:20:24.063Z,79.80
2019-04-23T05:23:00.375Z,79.00
2019-04-23T05:25:12.644Z,78.80
2019-04-23T05:27:53.658Z,79.10
2019-04-23T05:30:25.135Z,78.80
2019-04-23T05:32:51.884Z,78.90
2019-04-23T05:35:39.813Z,78.40
2019-04-23T05:40:35.561Z,78.30
2019-04-23T05:42:53.223Z,78.20
2019-04-23T05:45:28.823Z,78.10
2019-04-23T05:48:04.703Z,77.10
2019-04-23T05:50:35.701Z,77.00
2019-04-23T05:52:59.795Z,76.40
2019-04-23T05:55:21.747Z,75.90
2019-04-23T05:57:52.468Z,76.40
2019-04-23T06:03:22.874Z,75.50
2019-04-23T06:05:25.026Z,74.70
2019-04-23T06:08:09.410Z,74.60
2019-04-23T06:10:32.403Z,73.30
2019-04-23T06:13:04.894Z,73.80
2019-04-23T06:18:14.528Z,73.20
2019-04-23T06:20:42.566Z,72.50
2019-04-23T06:23:30.183Z,71.80
2019-04-23T06:25:51.068Z,70.90
2019-04-23T06:28:11.256Z,71.00
2019-04-23T06:33:14.506Z,70.40
2019-04-23T06:35:43.806Z,68.10
2019-04-23T06:38:39.142Z,67.80
2019-04-23T06:40:43.586Z,66.50
2019-04-23T06:43:11.603Z,68.50
2019-04-23T06:45:37.555Z,66.00
2019-04-23T06:48:16.642Z,64.80
2019-04-23T06:53:09.044Z,65.40
2019-04-23T06:55:42.059Z,64.60
2019-04-23T06:58:24.074Z,62.80
2019-04-23T07:00:48.862Z,64.10
2019-04-23T07:03:25.054Z,63.10
2019-04-23T07:06:19.155Z,62.60
2019-04-23T07:16:09.572Z,59.60
2019-04-23T07:18:41.597Z,57.80
2019-04-23T07:21:17.898Z,59.50
2019-04-23T07:23:54.706Z,59.90
2019-04-23T07:26:26.184Z,58.00
2019-04-23T07:28:49.817Z,58.80
2019-04-23T07:31:32.493Z,57.10
2019-04-23T07:33:57.563Z,56.80
2019-04-23T07:36:32.688Z,56.30
2019-04-23T07:39:17.536Z,55.30
2019-04-23T07:41:47.841Z,54.90
2019-04-23T07:44:39.838Z,55.40
2019-04-23T07:47:25.183Z,55.50
2019-04-23T07:49:49.330Z,56.10
2019-04-23T07:54:54.355Z,54.20
2019-04-23T07:57:18.777Z,55.30
2019-04-23T07:59:59.201Z,55.00
2019-04-23T08:02:31.302Z,53.50
2019-04-23T08:05:11.626Z,54.60
2019-04-23T08:07:35.215Z,53.00
2019-04-23T08:10:00.263Z,55.00
2019-04-23T08:15:09.091Z,55.30
2019-04-23T08:17:34.680Z,56.20
2019-04-23T08:20:07.381Z,54.00
2019-04-23T08:22:39.271Z,55.00
2019-04-23T08:25:14.283Z,52.50
2019-04-23T08:27:51.526Z,54.20
2019-04-23T08:30:09.755Z,52.00
2019-04-23T08:32:52.206Z,51.90
2019-04-23T08:35:14.146Z,51.60
2019-04-23T08:40:20.196Z,52.50
2019-04-23T08:42:58.107Z,52.30
2019-04-23T08:45:21.762Z,53.10
2019-04-23T08:53:19.991Z,50.70
2019-04-23T08:55:38.853Z,51.00
2019-04-23T08:58:06.228Z,50.70
2019-04-23T09:00:45.543Z,50.50
2019-04-23T09:03:14.640Z,50.00
2019-04-23T09:05:48.314Z,47.90
2019-04-23T09:08:14.996Z,49.60
2019-04-23T09:15:45.061Z,46.60
2019-04-23T09:18:18.951Z,48.30
2019-04-23T09:20:37.523Z,45.80
2019-04-23T09:23:20.847Z,47.20
2019-04-23T09:33:25.880Z,47.80
2019-04-23T09:35:54.019Z,47.10
2019-04-23T09:38:43.254Z,46.30
2019-04-23T09:41:27.345Z,48.00
2019-04-23T09:44:39.415Z,46.20
2019-04-23T09:46:49.627Z,43.80
2019-04-23T09:49:20.520Z,43.90
2019-04-23T09:54:22.155Z,45.30
2019-04-23T09:56:50.819Z,45.60
2019-04-23T10:05:13.823Z,42.90
2019-04-23T10:10:08.331Z,42.80
2019-04-23T10:12:37.702Z,44.00
2019-04-23T10:15:15.906Z,46.60
2019-04-23T10:17:38.054Z,45.70
2019-04-23T10:20:08.709Z,44.20
2019-04-23T10:22:39.208Z,44.40
2019-04-23T10:25:08.860Z,44.30
2019-04-23T10:27:39.209Z,46.00
2019-04-23T10:30:09.975Z,45.80
2019-04-23T10:32:40.027Z,45.40
2019-04-23T10:35:20.484Z,46.10
2019-04-23T10:37:49.091Z,43.20
2019-04-23T10:40:16.947Z,44.40
2019-04-23T10:42:45.649Z,43.50
2019-04-23T10:45:45.416Z,43.60
2019-04-23T10:48:32.654Z,42.40
2019-04-23T10:54:48.545Z,43.40
2019-04-23T11:03:14.023Z,41.90
2019-04-23T11:05:47.581Z,40.10
2019-04-23T11:07:35.336Z,40.10
2019-04-23T11:10:16.800Z,40.00
2019-04-23T11:13:04.156Z,39.90
2019-04-23T11:15:48.038Z,38.80
2019-04-23T11:17:52.460Z,39.50
2019-04-23T11:22:57.192Z,38.40
2019-04-23T11:28:11.038Z,38.40
2019-04-23T11:33:10.163Z,41.50
2019-04-23T11:35:53.052Z,36.70
2019-04-23T11:38:35.182Z,39.90
2019-04-23T11:40:35.350Z,40.50
2019-04-23T11:43:14.787Z,39.30
2019-04-23T11:45:48.514Z,40.30
2019-04-23T11:51:23.885Z,39.20
2019-04-23T11:53:18.506Z,40.40
2019-04-23T11:55:44.824Z,40.60
2019-04-23T12:03:19.398Z,42.30
2019-04-23T12:06:09.545Z,40.80
2019-04-23T12:11:40.983Z,37.80
2019-04-23T12:14:15.449Z,38.40
2019-04-23T12:16:43.428Z,40.30
2019-04-23T12:19:27.988Z,40.70
2019-04-23T12:21:38.071Z,39.60
2019-04-23T12:24:53.626Z,38.30
2019-04-23T12:26:56.370Z,39.40
2019-04-23T12:29:11.307Z,41.50
2019-04-23T12:31:41.012Z,41.30
2019-04-23T12:34:05.085Z,41.20
2019-04-23T12:39:18.933Z,43.20
2019-04-23T12:41:52.742Z,44.10
2019-04-23T12:44:14.849Z,42.80
2019-04-23T12:46:45.898Z,44.00
2019-04-23T12:49:40.674Z,43.90
2019-04-23T12:51:46.885Z,45.00
2019-04-23T12:54:35.352Z,44.30
2019-04-23T12:56:58.966Z,44.90
2019-04-23T12:59:20.303Z,45.80
2019-04-23T13:01:55.913Z,46.30
2019-04-23T13:04:26.175Z,44.30
2019-04-23T13:06:51.353Z,44.30
2019-04-23T13:09:21.971Z,44.90
2019-04-23T13:11:49.979Z,44.60
2019-04-23T13:14:26.487Z,45.40
2019-04-23T13:17:01.937Z,47.30
2019-04-23T13:19:37.390Z,45.80
2019-04-23T13:22:13.977Z,46.90
2019-04-23T13:24:32.838Z,45.30
2019-04-23T13:27:15.638Z,45.60
2019-04-23T13:29:42.901Z,45.70
2019-04-23T13:32:17.351Z,44.80
2019-04-23T13:34:51.128Z,44.60
2019-04-23T13:37:11.305Z,44.80
2019-04-23T13:39:42.231Z,46.10
2019-04-23T13:42:15.955Z,46.50
2019-04-23T13:44:42.704Z,46.10
2019-04-23T13:47:23.910Z,46.70
2019-04-23T13:49:45.270Z,46.40
2019-04-23T13:52:43.296Z,46.60
2019-04-23T13:54:59.627Z,46.10
2019-04-23T13:59:45.044Z,46.80
2019-04-23T14:02:24.920Z,46.90
2019-04-23T14:04:59.741Z,48.70
2019-04-23T14:07:38.787Z,46.00
2019-04-23T14:10:14.080Z,47.30
2019-04-23T14:17:59.982Z,46.90
2019-04-23T14:20:18.990Z,47.30
2019-04-23T14:27:48.811Z,46.20
2019-04-23T14:30:29.993Z,47.00
2019-04-23T14:32:45.741Z,47.90
2019-04-23T14:35:21.930Z,47.40
2019-04-23T14:37:54.184Z,48.00
2019-04-23T14:40:22.308Z,47.40
2019-04-23T14:43:04.425Z,49.40
2019-04-23T14:45:29.566Z,49.80
2019-04-23T14:48:00.759Z,48.90
2019-04-23T14:50:34.862Z,48.00
2019-04-23T14:52:56.950Z,49.00
2019-04-23T14:58:28.287Z,49.60
2019-04-23T15:00:58.832Z,48.00
2019-04-23T15:03:21.077Z,47.90
2019-04-23T15:05:58.066Z,48.10
2019-04-23T15:08:16.866Z,47.10
2019-04-23T15:11:03.715Z,48.10
2019-04-23T15:13:19.799Z,47.50
2019-04-23T15:15:53.166Z,47.70
2019-04-23T15:18:23.166Z,48.90
2019-04-23T15:21:12.428Z,47.90
2019-04-23T15:28:34.021Z,48.50
2019-04-23T15:31:33.347Z,48.20
2019-04-23T15:34:03.732Z,47.80
2019-04-23T15:39:02.425Z,49.10
2019-04-23T15:41:34.560Z,48.90
2019-04-23T15:44:07.341Z,49.00
2019-04-23T15:49:08.282Z,48.50
2019-04-23T15:52:00.337Z,48.70
2019-04-23T15:56:55.281Z,50.40
2019-04-23T15:59:44.151Z,49.90
2019-04-23T16:01:42.585Z,50.60
2019-04-23T16:10:46.097Z,50.60
2019-04-23T16:13:38.894Z,49.70
2019-04-23T16:22:32.095Z,50.50
2019-04-23T16:41:54.165Z,50.20
2019-04-23T16:47:18.587Z,50.20
2019-04-23T16:49:50.378Z,50.50
2019-04-23T16:52:32.736Z,51.00
2019-04-23T16:54:58.625Z,51.40
2019-04-23T16:57:43.511Z,51.90
2019-04-23T17:00:17.998Z,51.10
2019-04-23T17:02:57.326Z,52.20
2019-04-23T17:05:12.417Z,52.20
2019-04-23T17:07:36.519Z,51.80
2019-04-23T17:12:38.687Z,52.90
2019-04-23T17:17:34.103Z,52.60
2019-04-23T17:20:16.655Z,53.00
2019-04-23T17:22:38.680Z,53.00
2019-04-23T17:25:16.045Z,53.80
2019-04-23T17:27:48.887Z,53.40
2019-04-23T17:30:11.998Z,53.60
2019-04-23T17:32:35.787Z,54.10
2019-04-23T17:35:24.713Z,54.00
2019-04-23T17:38:05.038Z,54.60
2019-04-23T17:40:47.239Z,54.90
2019-04-23T17:43:01.470Z,55.10
2019-04-23T17:48:11.495Z,55.40
2019-04-23T17:50:52.506Z,55.80
2019-04-23T18:00:17.967Z,57.30
2019-04-23T18:15:59.936Z,58.90
2019-04-23T18:18:24.544Z,59.40
2019-04-23T18:20:57.942Z,59.80
2019-04-23T18:23:14.895Z,59.90
2019-04-23T18:25:58.072Z,60.50
2019-04-23T18:28:19.933Z,61.10
2019-04-23T18:31:13.055Z,61.60
2019-04-23T18:36:13.444Z,60.80
2019-04-23T18:38:50.155Z,61.50
2019-04-23T18:43:46.381Z,62.30
2019-04-23T18:46:24.697Z,62.40
2019-04-23T18:51:12.468Z,62.80
2019-04-23T18:53:49.870Z,63.60
2019-04-23T18:56:20.733Z,63.10
2019-04-23T19:01:27.893Z,62.80
2019-04-23T19:17:29.114Z,64.30
2019-04-23T19:19:35.027Z,64.50
2019-04-23T19:24:37.789Z,65.30
2019-04-23T19:27:31.623Z,65.60
2019-04-23T19:29:46.235Z,66.00
2019-04-23T19:32:02.944Z,66.00
2019-04-23T19:34:40.789Z,66.30
2019-04-23T19:37:38.537Z,66.60
2019-04-23T19:39:52.109Z,66.70
2019-04-23T19:42:28.125Z,67.20
2019-04-23T19:44:43.865Z,67.30
2019-04-23T19:47:17.205Z,67.30
2019-04-23T19:49:40.597Z,66.80
2019-04-23T19:52:18.966Z,67.10
2019-04-23T19:54:51.814Z,68.00
2019-04-23T19:59:55.915Z,68.50
2019-04-23T20:02:15.155Z,69.10
2019-04-23T20:07:38.649Z,70.10
2019-04-23T20:14:58.125Z,70.30
2019-04-23T20:20:02.934Z,70.80
2019-04-23T20:25:38.733Z,71.00
2019-04-23T20:28:05.708Z,71.30
2019-04-23T20:32:57.574Z,71.30
2019-04-23T20:40:31.223Z,71.30
2019-04-23T20:42:53.336Z,71.70
2019-04-23T20:45:27.982Z,71.80
2019-04-23T20:50:26.202Z,71.80
2019-04-23T20:53:19.445Z,72.10
2019-04-23T20:56:01.471Z,72.30
2019-04-23T20:58:52.089Z,72.10
2019-04-23T21:01:27.641Z,72.40
2019-04-23T21:03:55.175Z,72.60
2019-04-23T21:06:45.914Z,73.10
2019-04-23T21:12:04.801Z,73.30
2019-04-23T21:14:41.318Z,73.50
2019-04-23T21:16:54.933Z,73.60
2019-04-23T21:19:41.764Z,74.10
2019-04-23T21:22:13.428Z,74.40
2019-04-23T21:25:11.791Z,74.20
2019-04-23T21:28:17.197Z,74.40
2019-04-23T21:36:40.163Z,74.50
2019-04-23T21:40:28.558Z,74.70
2019-04-23T21:47:10.006Z,75.30
2019-04-23T21:49:52.821Z,75.60
2019-04-23T21:52:20.524Z,75.50
2019-04-23T21:57:53.252Z,76.50
2019-04-23T22:03:37.429Z,77.00
2019-04-23T22:06:10.151Z,77.10
2019-04-23T22:08:43.591Z,77.40
2019-04-23T22:11:42.634Z,77.50
2019-04-23T22:14:06.913Z,77.30
2019-04-23T22:19:38.183Z,77.80
2019-04-23T22:22:51.172Z,78.00
2019-04-23T22:43:20.310Z,80.60
2019-04-23T22:52:16.431Z,80.80
2019-04-23T22:59:11.683Z,81.80
2019-04-23T23:05:02.085Z,82.60
